sensor_id;sensor_type;location;lat;lon;timestamp;pressure;altitude;pressure_sealevel;temperature;humidity
38253;BME280;24785;52.372;20.672;2023-07-22T00:06:18;100117.97;;;15.09;100.00
38253;BME280;24785;52.372;20.672;2023-07-22T00:16:19;100111.16;;;15.12;100.00
38253;BME280;24785;52.372;20.672;2023-07-22T00:26:20;100111.56;;;14.97;100.00
38253;BME280;24785;52.372;20.672;2023-07-22T00:36:21;100115.72;;;15.03;100.00
38253;BME280;24785;52.372;20.672;2023-07-22T00:46:21;100085.53;;;14.92;100.00
38253;BME280;24785;52.372;20.672;2023-07-22T00:56:22;100083.50;;;15.06;100.00
38253;BME280;24785;52.372;20.672;2023-07-22T01:06:23;100118.34;;;15.17;100.00
38253;BME280;24785;52.372;20.672;2023-07-22T01:16:28;100084.28;;;15.47;100.00
38253;BME280;24785;52.372;20.672;2023-07-22T01:26:29;100072.41;;;15.56;100.00
38253;BME280;24785;52.372;20.672;2023-07-22T01:36:30;100053.63;;;15.42;100.00
38253;BME280;24785;52.372;20.672;2023-07-22T01:46:31;100029.75;;;15.19;100.00
38253;BME280;24785;52.372;20.672;2023-07-22T01:56:32;99994.69;;;15.19;100.00
38253;BME280;24785;52.372;20.672;2023-07-22T02:06:33;99997.72;;;15.26;100.00
38253;BME280;24785;52.372;20.672;2023-07-22T02:16:36;100012.00;;;15.26;100.00
38253;BME280;24785;52.372;20.672;2023-07-22T02:26:39;99993.91;;;15.27;100.00
38253;BME280;24785;52.372;20.672;2023-07-22T02:36:40;99988.97;;;15.20;100.00
38253;BME280;24785;52.372;20.672;2023-07-22T02:46:41;99986.53;;;15.10;100.00
38253;BME280;24785;52.372;20.672;2023-07-22T02:56:42;99980.09;;;14.80;100.00
38253;BME280;24785;52.372;20.672;2023-07-22T03:06:43;99988.00;;;14.68;100.00
38253;BME280;24785;52.372;20.672;2023-07-22T03:16:44;99985.97;;;14.73;100.00
38253;BME280;24785;52.372;20.672;2023-07-22T03:26:45;99999.97;;;14.84;100.00
38253;BME280;24785;52.372;20.672;2023-07-22T03:36:45;100024.28;;;15.01;100.00
38253;BME280;24785;52.372;20.672;2023-07-22T03:46:48;100018.22;;;15.35;100.00
38253;BME280;24785;52.372;20.672;2023-07-22T03:56:49;100021.53;;;15.41;100.00
38253;BME280;24785;52.372;20.672;2023-07-22T04:06:49;100028.16;;;15.74;100.00
38253;BME280;24785;52.372;20.672;2023-07-22T04:16:50;100026.72;;;15.77;100.00
38253;BME280;24785;52.372;20.672;2023-07-22T04:26:51;100016.69;;;15.78;100.00
38253;BME280;24785;52.372;20.672;2023-07-22T04:36:52;100022.72;;;15.92;100.00
38253;BME280;24785;52.372;20.672;2023-07-22T04:46:53;100031.47;;;16.06;100.00
38253;BME280;24785;52.372;20.672;2023-07-22T04:56:53;100048.50;;;16.15;100.00
38253;BME280;24785;52.372;20.672;2023-07-22T05:06:54;100055.00;;;16.05;100.00
38253;BME280;24785;52.372;20.672;2023-07-22T05:16:55;100062.50;;;16.09;100.00
38253;BME280;24785;52.372;20.672;2023-07-22T05:26:56;100067.88;;;16.26;100.00
38253;BME280;24785;52.372;20.672;2023-07-22T05:36:57;100075.44;;;16.84;100.00
38253;BME280;24785;52.372;20.672;2023-07-22T05:46:57;100099.88;;;17.43;100.00
38253;BME280;24785;52.372;20.672;2023-07-22T05:56:58;100114.00;;;17.19;100.00
38253;BME280;24785;52.372;20.672;2023-07-22T06:06:59;100108.03;;;17.35;100.00
38253;BME280;24785;52.372;20.672;2023-07-22T06:17:00;100098.53;;;17.58;100.00
38253;BME280;24785;52.372;20.672;2023-07-22T06:27:01;100109.09;;;18.22;100.00
38253;BME280;24785;52.372;20.672;2023-07-22T06:37:02;100120.94;;;18.92;100.00
38253;BME280;24785;52.372;20.672;2023-07-22T06:47:03;100123.81;;;19.81;100.00
38253;BME280;24785;52.372;20.672;2023-07-22T06:57:04;100143.38;;;19.38;100.00
38253;BME280;24785;52.372;20.672;2023-07-22T07:07:06;100157.06;;;19.17;100.00
38253;BME280;24785;52.372;20.672;2023-07-22T07:17:07;100162.06;;;18.82;100.00
38253;BME280;24785;52.372;20.672;2023-07-22T07:27:08;100177.41;;;18.99;100.00
38253;BME280;24785;52.372;20.672;2023-07-22T07:37:09;100190.50;;;18.64;99.23
38253;BME280;24785;52.372;20.672;2023-07-22T07:47:09;100194.44;;;18.87;100.00
38253;BME280;24785;52.372;20.672;2023-07-22T07:57:10;100202.22;;;18.88;96.17
38253;BME280;24785;52.372;20.672;2023-07-22T08:07:15;100207.34;;;19.35;86.95
38253;BME280;24785;52.372;20.672;2023-07-22T08:17:16;100217.41;;;19.23;84.77
38253;BME280;24785;52.372;20.672;2023-07-22T08:27:19;100233.25;;;19.78;82.95
38253;BME280;24785;52.372;20.672;2023-07-22T08:37:20;100226.00;;;19.82;79.26
38253;BME280;24785;52.372;20.672;2023-07-22T08:47:21;100231.28;;;20.52;67.79
38253;BME280;24785;52.372;20.672;2023-07-22T08:57:24;100234.69;;;20.89;65.67
38253;BME280;24785;52.372;20.672;2023-07-22T09:07:26;100241.19;;;21.28;62.64
38253;BME280;24785;52.372;20.672;2023-07-22T09:17:27;100244.97;;;20.95;60.95
38253;BME280;24785;52.372;20.672;2023-07-22T09:27:34;100244.34;;;20.86;60.99
38253;BME280;24785;52.372;20.672;2023-07-22T09:37:36;100257.97;;;20.86;62.75
38253;BME280;24785;52.372;20.672;2023-07-22T09:47:48;100248.00;;;21.50;59.00
38253;BME280;24785;52.372;20.672;2023-07-22T09:57:53;100256.00;;;21.74;60.63
38253;BME280;24785;52.372;20.672;2023-07-22T10:07:58;100244.22;;;21.70;57.06
38253;BME280;24785;52.372;20.672;2023-07-22T10:18:00;100267.09;;;21.50;56.75
38253;BME280;24785;52.372;20.672;2023-07-22T10:28:02;100278.91;;;21.85;55.88
38253;BME280;24785;52.372;20.672;2023-07-22T10:38:08;100264.44;;;22.16;55.97
38253;BME280;24785;52.372;20.672;2023-07-22T10:48:11;100272.63;;;22.00;56.80
38253;BME280;24785;52.372;20.672;2023-07-22T10:58:15;100280.56;;;21.58;57.81
38253;BME280;24785;52.372;20.672;2023-07-22T11:08:16;100288.38;;;21.76;58.33
38253;BME280;24785;52.372;20.672;2023-07-22T11:18:19;100285.41;;;22.12;56.74
38253;BME280;24785;52.372;20.672;2023-07-22T11:28:20;100268.97;;;22.79;54.14
38253;BME280;24785;52.372;20.672;2023-07-22T11:38:21;100268.19;;;22.98;54.09
38253;BME280;24785;52.372;20.672;2023-07-22T11:48:22;100265.19;;;22.48;53.76
38253;BME280;24785;52.372;20.672;2023-07-22T11:58:26;100260.34;;;22.42;54.17
38253;BME280;24785;52.372;20.672;2023-07-22T12:08:28;100231.75;;;22.90;47.88
38253;BME280;24785;52.372;20.672;2023-07-22T12:18:41;100226.03;;;23.86;45.90
38253;BME280;24785;52.372;20.672;2023-07-22T12:28:42;100223.84;;;23.50;45.58
38253;BME280;24785;52.372;20.672;2023-07-22T12:38:43;100227.44;;;22.89;47.92
38253;BME280;24785;52.372;20.672;2023-07-22T12:48:44;100219.13;;;23.70;44.84
38253;BME280;24785;52.372;20.672;2023-07-22T12:58:45;100203.97;;;24.59;41.74
38253;BME280;24785;52.372;20.672;2023-07-22T13:08:46;100221.50;;;24.51;39.94
38253;BME280;24785;52.372;20.672;2023-07-22T13:18:47;100233.25;;;24.85;43.13
38253;BME280;24785;52.372;20.672;2023-07-22T13:28:47;100242.81;;;24.34;43.81
38253;BME280;24785;52.372;20.672;2023-07-22T13:38:48;100245.69;;;24.18;44.00
38253;BME280;24785;52.372;20.672;2023-07-22T13:48:49;100260.81;;;23.86;44.94
38253;BME280;24785;52.372;20.672;2023-07-22T13:58:50;100271.44;;;22.49;47.94
38253;BME280;24785;52.372;20.672;2023-07-22T14:08:51;100284.34;;;21.69;50.13
38253;BME280;24785;52.372;20.672;2023-07-22T14:18:52;100283.06;;;23.19;48.66
38253;BME280;24785;52.372;20.672;2023-07-22T14:28:53;100270.13;;;22.97;45.79
38253;BME280;24785;52.372;20.672;2023-07-22T14:38:54;100276.50;;;22.31;49.10
38253;BME280;24785;52.372;20.672;2023-07-22T14:48:56;100286.78;;;22.73;49.69
38253;BME280;24785;52.372;20.672;2023-07-22T14:58:57;100292.13;;;23.04;49.45
38253;BME280;24785;52.372;20.672;2023-07-22T15:08:58;100279.41;;;24.00;43.47
38253;BME280;24785;52.372;20.672;2023-07-22T15:18:59;100280.00;;;23.44;43.17
38253;BME280;24785;52.372;20.672;2023-07-22T15:29:00;100275.06;;;23.30;43.10
38253;BME280;24785;52.372;20.672;2023-07-22T15:39:01;100269.66;;;27.92;36.12
38253;BME280;24785;52.372;20.672;2023-07-22T15:49:01;100264.53;;;28.01;33.57
38253;BME280;24785;52.372;20.672;2023-07-22T15:59:02;100278.53;;;24.71;36.90
38253;BME280;24785;52.372;20.672;2023-07-22T16:09:03;100280.09;;;23.28;40.87
38253;BME280;24785;52.372;20.672;2023-07-22T16:19:04;100297.69;;;23.50;39.65
38253;BME280;24785;52.372;20.672;2023-07-22T16:29:06;100306.34;;;22.40;41.92
38253;BME280;24785;52.372;20.672;2023-07-22T16:39:07;100311.31;;;22.53;42.54
38253;BME280;24785;52.372;20.672;2023-07-22T16:49:08;100318.28;;;22.51;41.02
38253;BME280;24785;52.372;20.672;2023-07-22T16:59:09;100308.91;;;22.33;40.80
38253;BME280;24785;52.372;20.672;2023-07-22T17:09:10;100319.56;;;22.22;39.50
38253;BME280;24785;52.372;20.672;2023-07-22T17:19:12;100320.16;;;21.84;41.53
38253;BME280;24785;52.372;20.672;2023-07-22T17:29:13;100326.13;;;21.74;41.72
38253;BME280;24785;52.372;20.672;2023-07-22T17:39:14;100333.72;;;21.36;42.40
38253;BME280;24785;52.372;20.672;2023-07-22T17:49:14;100344.78;;;21.16;43.48
38253;BME280;24785;52.372;20.672;2023-07-22T17:59:15;100354.63;;;20.80;44.67
38253;BME280;24785;52.372;20.672;2023-07-22T18:09:16;100364.38;;;20.32;46.57
38253;BME280;24785;52.372;20.672;2023-07-22T18:19:17;100365.88;;;19.72;48.11
38253;BME280;24785;52.372;20.672;2023-07-22T18:29:18;100373.50;;;19.04;51.11
38253;BME280;24785;52.372;20.672;2023-07-22T18:39:18;100384.59;;;18.32;54.46
38253;BME280;24785;52.372;20.672;2023-07-22T18:49:19;100407.22;;;17.63;56.12
38253;BME280;24785;52.372;20.672;2023-07-22T18:59:20;100414.03;;;17.00;60.32
38253;BME280;24785;52.372;20.672;2023-07-22T19:09:21;100442.44;;;16.32;64.14
38253;BME280;24785;52.372;20.672;2023-07-22T19:19:22;100449.41;;;15.71;67.61
38253;BME280;24785;52.372;20.672;2023-07-22T19:29:24;100463.53;;;15.18;71.94
38253;BME280;24785;52.372;20.672;2023-07-22T19:39:25;100464.25;;;14.83;74.76
38253;BME280;24785;52.372;20.672;2023-07-22T19:49:26;100464.44;;;14.45;79.13
38253;BME280;24785;52.372;20.672;2023-07-22T19:59:29;100473.69;;;14.06;82.76
38253;BME280;24785;52.372;20.672;2023-07-22T20:09:30;100487.44;;;13.72;86.51
38253;BME280;24785;52.372;20.672;2023-07-22T20:19:31;100486.72;;;13.48;90.80
38253;BME280;24785;52.372;20.672;2023-07-22T20:29:34;100509.31;;;12.80;92.83
38253;BME280;24785;52.372;20.672;2023-07-22T20:39:35;100512.56;;;12.53;99.52
38253;BME280;24785;52.372;20.672;2023-07-22T20:49:35;100528.19;;;12.17;100.00
38253;BME280;24785;52.372;20.672;2023-07-22T20:59:37;100535.72;;;12.15;100.00
38253;BME280;24785;52.372;20.672;2023-07-22T21:09:39;100532.47;;;12.18;100.00
38253;BME280;24785;52.372;20.672;2023-07-22T21:19:43;100541.22;;;12.00;100.00
38253;BME280;24785;52.372;20.672;2023-07-22T21:29:44;100546.44;;;11.76;100.00
38253;BME280;24785;52.372;20.672;2023-07-22T21:39:45;100552.47;;;11.53;100.00
38253;BME280;24785;52.372;20.672;2023-07-22T21:49:46;100548.78;;;11.33;100.00
38253;BME280;24785;52.372;20.672;2023-07-22T21:59:46;100554.81;;;11.05;100.00
38253;BME280;24785;52.372;20.672;2023-07-22T22:09:47;100561.56;;;10.82;100.00
38253;BME280;24785;52.372;20.672;2023-07-22T22:19:48;100572.84;;;10.69;100.00
38253;BME280;24785;52.372;20.672;2023-07-22T22:29:49;100586.53;;;10.52;100.00
38253;BME280;24785;52.372;20.672;2023-07-22T22:39:50;100584.94;;;10.41;100.00
38253;BME280;24785;52.372;20.672;2023-07-22T22:49:51;100584.63;;;10.27;100.00
38253;BME280;24785;52.372;20.672;2023-07-22T22:59:52;100595.31;;;10.12;100.00
38253;BME280;24785;52.372;20.672;2023-07-22T23:09:52;100593.97;;;9.94;100.00
38253;BME280;24785;52.372;20.672;2023-07-22T23:19:54;100599.53;;;9.83;100.00
38253;BME280;24785;52.372;20.672;2023-07-22T23:29:55;100605.94;;;9.82;100.00
38253;BME280;24785;52.372;20.672;2023-07-22T23:39:56;100595.22;;;9.71;100.00
38253;BME280;24785;52.372;20.672;2023-07-22T23:49:57;100590.91;;;9.60;100.00
38253;BME280;24785;52.372;20.672;2023-07-22T23:59:58;100598.84;;;9.45;100.00
